createdAt,value
2023-02-09T00:00:16.807Z,16.38
2023-02-09T00:02:46.468Z,17.98
2023-02-09T00:08:10.388Z,17.77
2023-02-09T00:10:39.442Z,16.92
2023-02-09T00:13:24.852Z,17.85
2023-02-09T00:15:55.428Z,18.15
2023-02-09T00:18:23.777Z,17.15
2023-02-09T00:20:56.804Z,17.55
2023-02-09T00:23:24.629Z,17.48
2023-02-09T00:25:52.807Z,17.25
2023-02-09T00:28:20.706Z,16.75
2023-02-09T00:30:48.650Z,16.52
2023-02-09T00:33:20.655Z,16.80
2023-02-09T00:35:52.431Z,19.60
2023-02-09T00:38:20.372Z,18.85
2023-02-09T00:43:41.193Z,18.77
2023-02-09T00:46:09.316Z,16.98
2023-02-09T00:48:38.416Z,17.35
2023-02-09T00:51:06.375Z,17.17
2023-02-09T00:53:36.368Z,17.90
2023-02-09T00:56:04.739Z,16.70
2023-02-09T00:58:32.402Z,18.48
2023-02-09T01:01:00.419Z,18.35
2023-02-09T01:03:28.365Z,19.55
2023-02-09T01:05:58.844Z,17.58
2023-02-09T01:08:26.493Z,16.85
2023-02-09T01:10:54.384Z,16.77
2023-02-09T01:13:26.447Z,18.83
2023-02-09T01:15:54.378Z,18.02
2023-02-09T01:18:48.543Z,16.10
2023-02-09T01:21:47.643Z,17.13
2023-02-09T01:24:16.497Z,17.05
2023-02-09T01:26:44.385Z,15.85
2023-02-09T01:29:14.522Z,16.75
2023-02-09T01:34:34.950Z,16.98
2023-02-09T01:37:02.434Z,17.50
2023-02-09T01:39:30.481Z,18.08
2023-02-09T01:42:23.774Z,18.08
2023-02-09T01:45:21.492Z,16.75
2023-02-09T01:48:00.434Z,16.08
2023-02-09T01:50:34.690Z,15.27
2023-02-09T01:53:07.785Z,16.10
2023-02-09T01:55:45.622Z,17.40
2023-02-09T01:58:22.263Z,15.85
2023-02-09T02:00:54.748Z,16.38
2023-02-09T02:03:25.805Z,16.45
2023-02-09T02:06:02.124Z,16.20
2023-02-09T02:11:32.860Z,17.88
2023-02-09T02:14:00.508Z,16.17
2023-02-09T02:16:59.362Z,15.80
2023-02-09T02:20:10.103Z,17.20
2023-02-09T02:23:09.119Z,16.00
2023-02-09T02:25:45.448Z,15.63
2023-02-09T02:28:49.488Z,15.32
2023-02-09T02:31:38.389Z,16.15
2023-02-09T02:34:31.338Z,15.23
2023-02-09T02:37:17.158Z,16.50
2023-02-09T02:39:56.144Z,15.10
2023-02-09T02:42:58.592Z,14.43
2023-02-09T02:45:39.503Z,16.60
2023-02-09T02:48:41.152Z,15.10
2023-02-09T02:52:03.378Z,15.13
2023-02-09T02:54:35.200Z,17.20
2023-02-09T02:57:06.783Z,16.55
2023-02-09T02:59:38.805Z,15.60
2023-02-09T03:02:12.541Z,16.48
2023-02-09T03:04:42.649Z,15.65
2023-02-09T03:07:10.929Z,15.23
2023-02-09T03:09:53.357Z,15.50
2023-02-09T03:12:49.777Z,15.52
2023-02-09T03:15:28.468Z,16.50
2023-02-09T03:18:01.912Z,15.38
2023-02-09T03:20:43.310Z,14.98
2023-02-09T03:24:20.660Z,16.25
2023-02-09T03:27:08.037Z,15.40
2023-02-09T03:32:31.459Z,16.45
2023-02-09T03:35:05.162Z,14.55
2023-02-09T03:37:32.377Z,15.40
2023-02-09T03:40:00.392Z,15.20
2023-02-09T03:42:28.407Z,17.10
2023-02-09T03:45:01.414Z,14.93
2023-02-09T03:47:28.659Z,16.42
2023-02-09T03:49:58.064Z,15.02
2023-02-09T03:52:50.684Z,15.57
2023-02-09T03:55:18.407Z,16.35
2023-02-09T03:58:10.376Z,14.70
2023-02-09T04:00:38.390Z,15.75
2023-02-09T04:03:06.506Z,16.05
2023-02-09T04:06:01.162Z,15.98
2023-02-09T04:08:30.047Z,14.90
2023-02-09T04:11:27.415Z,15.73
2023-02-09T04:13:55.119Z,13.23
2023-02-09T04:16:28.502Z,13.98
2023-02-09T04:18:56.486Z,13.55
2023-02-09T04:21:29.669Z,15.07
2023-02-09T04:24:01.566Z,14.85
2023-02-09T04:26:28.464Z,14.63
2023-02-09T04:28:56.403Z,14.77
2023-02-09T04:31:24.801Z,14.65
2023-02-09T04:33:52.431Z,13.75
2023-02-09T04:39:14.441Z,11.98
2023-02-09T04:41:42.433Z,12.38
2023-02-09T04:44:11.011Z,13.00
2023-02-09T04:46:45.750Z,12.63
2023-02-09T04:49:14.400Z,12.73
2023-02-09T04:52:11.420Z,12.82
2023-02-09T04:57:48.971Z,14.70
2023-02-09T05:00:19.772Z,13.82
2023-02-09T05:02:46.403Z,13.70
2023-02-09T05:05:22.127Z,12.93
2023-02-09T05:07:50.429Z,13.57
2023-02-09T05:10:18.502Z,14.52
2023-02-09T05:16:12.157Z,10.95
2023-02-09T05:18:45.001Z,12.45
2023-02-09T05:24:50.883Z,12.38
2023-02-09T05:27:25.966Z,14.63
2023-02-09T05:29:54.420Z,13.32
2023-02-09T05:32:27.448Z,12.18
2023-02-09T05:34:54.400Z,11.80
2023-02-09T05:37:31.433Z,11.45
2023-02-09T05:39:58.816Z,12.65
2023-02-09T05:45:18.535Z,11.77
2023-02-09T05:47:50.445Z,11.85
2023-02-09T05:50:18.537Z,11.68
2023-02-09T05:52:46.433Z,12.02
2023-02-09T05:55:14.415Z,12.43
2023-02-09T05:57:46.545Z,10.85
2023-02-09T06:00:15.001Z,11.60
2023-02-09T06:05:34.443Z,12.43
2023-02-09T06:08:31.948Z,9.88
2023-02-09T06:11:25.758Z,10.48
2023-02-09T06:13:52.368Z,11.13
2023-02-09T06:16:20.505Z,11.85
2023-02-09T06:19:13.819Z,10.82
2023-02-09T06:21:42.770Z,12.05
2023-02-09T06:24:36.379Z,11.88
2023-02-09T06:27:04.369Z,10.13
2023-02-09T06:29:32.534Z,10.70
2023-02-09T06:32:00.505Z,11.77
2023-02-09T06:34:28.584Z,11.95
2023-02-09T06:36:56.366Z,11.20
2023-02-09T06:39:29.488Z,11.88
2023-02-09T06:41:56.397Z,12.85
2023-02-09T06:44:24.488Z,10.88
2023-02-09T06:46:52.440Z,11.15
2023-02-09T06:49:25.311Z,11.77
2023-02-09T06:52:17.557Z,10.20
2023-02-09T06:54:45.234Z,10.20
2023-02-09T06:57:12.371Z,11.88
2023-02-09T06:59:40.367Z,11.23
2023-02-09T07:02:10.592Z,11.63
2023-02-09T07:04:38.464Z,11.77
2023-02-09T07:07:06.382Z,10.85
2023-02-09T07:09:34.384Z,11.30
2023-02-09T07:12:02.385Z,11.75
2023-02-09T07:14:30.374Z,11.52
2023-02-09T07:17:03.396Z,10.63
2023-02-09T07:19:30.525Z,10.68
2023-02-09T07:21:58.342Z,10.20
2023-02-09T07:24:31.447Z,10.40
2023-02-09T07:29:50.515Z,9.32
2023-02-09T07:32:18.421Z,10.68
2023-02-09T07:34:51.386Z,11.23
2023-02-09T07:37:18.424Z,11.50
2023-02-09T07:39:46.382Z,9.52
2023-02-09T07:42:14.403Z,9.70
2023-02-09T07:44:56.593Z,8.68
2023-02-09T07:47:24.438Z,10.98
2023-02-09T07:50:20.061Z,9.75
2023-02-09T07:52:48.399Z,9.82
2023-02-09T07:55:16.418Z,9.45
2023-02-09T07:57:49.480Z,9.55
2023-02-09T08:00:17.306Z,10.55
2023-02-09T08:02:45.533Z,8.63
2023-02-09T08:05:20.452Z,8.57
2023-02-09T08:07:53.750Z,8.93
2023-02-09T08:10:20.429Z,9.20
2023-02-09T08:13:00.282Z,9.07
2023-02-09T08:15:56.768Z,9.07
2023-02-09T08:18:49.755Z,9.80
2023-02-09T08:21:19.094Z,8.75
2023-02-09T08:23:54.064Z,8.27
2023-02-09T08:29:19.438Z,9.20
2023-02-09T08:31:46.503Z,10.27
2023-02-09T08:34:19.671Z,8.80
2023-02-09T08:36:46.362Z,8.90
2023-02-09T08:39:18.684Z,9.45
2023-02-09T08:41:46.567Z,9.73
2023-02-09T08:44:14.559Z,9.18
2023-02-09T08:46:42.523Z,7.82
2023-02-09T08:49:10.485Z,8.15
2023-02-09T08:51:38.459Z,7.85
2023-02-09T08:54:11.471Z,8.75
2023-02-09T08:56:38.820Z,8.32
2023-02-09T08:59:06.423Z,7.70
2023-02-09T09:01:34.604Z,8.27
2023-02-09T09:04:07.645Z,9.15
2023-02-09T09:06:40.628Z,9.07
2023-02-09T09:12:00.459Z,8.27
2023-02-09T09:14:28.420Z,8.40
2023-02-09T09:16:59.595Z,8.38
2023-02-09T09:19:37.425Z,7.65
2023-02-09T09:22:04.444Z,8.88
2023-02-09T09:24:32.708Z,8.10
2023-02-09T09:27:00.427Z,7.63
2023-02-09T09:29:28.505Z,7.55
2023-02-09T09:31:56.441Z,7.68
2023-02-09T09:34:28.949Z,7.35
2023-02-09T09:37:21.546Z,7.55
2023-02-09T09:39:49.077Z,7.50
2023-02-09T09:42:23.035Z,7.28
2023-02-09T09:44:55.516Z,6.82
2023-02-09T09:47:33.277Z,7.22
2023-02-09T09:50:00.549Z,7.75
2023-02-09T09:52:41.826Z,7.57
2023-02-09T09:55:22.451Z,6.50
2023-02-09T10:00:45.364Z,6.70
2023-02-09T10:03:19.076Z,6.35
2023-02-09T10:05:52.075Z,6.50
2023-02-09T10:08:53.036Z,7.30
2023-02-09T10:11:30.284Z,7.28
2023-02-09T10:13:58.582Z,5.95
2023-02-09T10:16:34.561Z,6.55
2023-02-09T10:24:53.415Z,6.50
2023-02-09T10:27:31.164Z,6.35
2023-02-09T10:30:20.526Z,6.95
2023-02-09T10:33:20.453Z,7.07
2023-02-09T10:35:56.468Z,6.40
2023-02-09T10:38:28.174Z,7.07
2023-02-09T10:40:56.598Z,5.70
2023-02-09T10:43:29.906Z,7.18
2023-02-09T10:46:25.684Z,6.78
2023-02-09T10:48:52.417Z,6.32
2023-02-09T10:51:31.493Z,6.40
2023-02-09T10:54:00.508Z,6.25
2023-02-09T10:56:47.147Z,7.68
2023-02-09T10:59:20.968Z,6.55
2023-02-09T11:01:54.907Z,6.50
2023-02-09T11:04:25.479Z,6.45
2023-02-09T11:07:14.699Z,6.18
2023-02-09T11:09:49.122Z,6.43
2023-02-09T11:12:16.421Z,6.57
2023-02-09T11:14:44.555Z,6.18
2023-02-09T11:17:36.422Z,7.55
2023-02-09T11:20:21.240Z,6.85
2023-02-09T11:23:26.736Z,6.55
2023-02-09T11:26:10.150Z,6.93
2023-02-09T11:29:08.742Z,6.80
2023-02-09T11:31:44.288Z,6.63
2023-02-09T11:34:26.312Z,6.50
2023-02-09T11:37:07.955Z,6.43
2023-02-09T11:40:01.335Z,6.57
2023-02-09T11:42:45.027Z,5.80
2023-02-09T11:45:16.451Z,6.55
2023-02-09T11:48:08.928Z,6.25
2023-02-09T11:51:00.639Z,5.85
2023-02-09T11:54:12.397Z,6.70
2023-02-09T11:56:49.808Z,6.30
2023-02-09T11:59:41.203Z,5.97
2023-02-09T12:02:19.367Z,6.57
2023-02-09T12:08:10.342Z,7.05
2023-02-09T12:10:47.365Z,6.72
2023-02-09T12:13:26.698Z,6.97
2023-02-09T12:18:54.460Z,6.15
2023-02-09T12:21:32.562Z,7.30
2023-02-09T12:24:06.327Z,6.85
2023-02-09T12:26:41.885Z,5.85
2023-02-09T12:29:37.102Z,6.63
2023-02-09T12:35:01.621Z,6.28
2023-02-09T12:37:29.532Z,6.80
2023-02-09T12:43:33.266Z,6.35
2023-02-09T12:46:26.517Z,6.72
2023-02-09T12:49:06.015Z,7.13
2023-02-09T12:51:37.420Z,6.85
2023-02-09T12:55:06.690Z,6.28
2023-02-09T12:57:51.165Z,7.30
2023-02-09T13:03:17.319Z,6.85
2023-02-09T13:06:29.785Z,6.43
2023-02-09T13:09:02.300Z,6.30
2023-02-09T13:11:44.761Z,6.15
2023-02-09T13:14:14.854Z,7.50
2023-02-09T13:17:04.156Z,6.63
2023-02-09T13:20:10.236Z,7.35
2023-02-09T13:23:07.136Z,6.70
2023-02-09T13:25:38.262Z,7.30
2023-02-09T13:28:16.576Z,6.80
2023-02-09T13:33:51.279Z,7.82
2023-02-09T13:36:55.626Z,7.85
2023-02-09T13:39:25.274Z,7.28
2023-02-09T13:41:54.466Z,8.20
2023-02-09T13:44:29.923Z,7.78
2023-02-09T13:47:07.227Z,7.78
2023-02-09T13:49:40.637Z,6.18
2023-02-09T13:52:19.884Z,7.88
2023-02-09T13:54:48.495Z,6.70
2023-02-09T13:57:35.338Z,7.38
2023-02-09T14:00:24.684Z,7.70
2023-02-09T14:03:03.935Z,7.00
2023-02-09T14:05:46.475Z,8.23
2023-02-09T14:08:19.585Z,7.15
2023-02-09T14:11:00.823Z,7.80
2023-02-09T14:16:29.144Z,7.75
2023-02-09T14:19:01.138Z,7.10
2023-02-09T14:21:43.327Z,8.40
2023-02-09T14:24:22.192Z,8.27
2023-02-09T14:27:03.853Z,7.47
2023-02-09T14:29:35.487Z,7.63
2023-02-09T14:32:32.223Z,6.72
2023-02-09T14:35:29.751Z,7.93
2023-02-09T14:37:59.486Z,8.98
2023-02-09T14:40:31.939Z,8.00
2023-02-09T14:43:06.548Z,8.02
2023-02-09T14:45:39.042Z,7.88
2023-02-09T14:48:31.530Z,7.82
2023-02-09T14:51:02.430Z,7.35
2023-02-09T14:53:31.956Z,8.18
2023-02-09T14:56:05.922Z,7.80
2023-02-09T14:58:39.750Z,7.50
2023-02-09T15:01:06.989Z,7.47
2023-02-09T15:03:34.505Z,8.00
2023-02-09T15:06:07.023Z,7.15
2023-02-09T15:08:36.588Z,7.55
2023-02-09T15:11:26.316Z,7.22
2023-02-09T15:14:03.727Z,8.63
2023-02-09T15:16:36.457Z,8.23
2023-02-09T15:19:10.888Z,8.60
2023-02-09T15:22:07.697Z,8.55
2023-02-09T15:24:41.852Z,8.85
2023-02-09T15:27:33.820Z,8.38
2023-02-09T15:30:05.684Z,7.78
2023-02-09T15:32:32.420Z,7.95
2023-02-09T15:35:00.382Z,7.28
2023-02-09T15:37:34.332Z,7.78
2023-02-09T15:40:16.657Z,7.82
2023-02-09T15:43:03.007Z,7.82
2023-02-09T15:46:18.130Z,7.13
2023-02-09T15:48:46.475Z,7.53
2023-02-09T15:51:20.387Z,8.10
2023-02-09T15:53:48.935Z,7.90
2023-02-09T15:56:16.494Z,8.20
2023-02-09T15:58:45.870Z,8.00
2023-02-09T16:01:16.993Z,8.77
2023-02-09T16:03:44.812Z,8.13
2023-02-09T16:06:18.471Z,8.15
2023-02-09T16:08:53.860Z,8.35
2023-02-09T16:11:29.204Z,7.85
2023-02-09T16:14:02.501Z,7.53
2023-02-09T16:16:31.478Z,8.63
2023-02-09T16:19:05.080Z,7.70
2023-02-09T16:21:33.640Z,8.38
2023-02-09T16:24:07.973Z,8.32
2023-02-09T16:26:36.497Z,7.43
2023-02-09T16:29:10.860Z,8.30
2023-02-09T16:31:38.621Z,9.98
2023-02-09T16:34:15.184Z,7.97
2023-02-09T16:36:49.558Z,8.05
2023-02-09T16:39:19.325Z,7.93
2023-02-09T16:41:47.307Z,7.50
2023-02-09T16:44:18.031Z,8.43
2023-02-09T16:46:48.850Z,8.98
2023-02-09T16:52:32.470Z,8.25
2023-02-09T16:55:04.240Z,8.13
2023-02-09T16:57:32.370Z,8.05
2023-02-09T17:06:35.316Z,8.18
2023-02-09T17:09:02.438Z,8.40
2023-02-09T17:11:30.471Z,8.80
2023-02-09T17:13:58.431Z,8.13
2023-02-09T17:16:50.673Z,9.35
2023-02-09T17:19:18.613Z,8.73
2023-02-09T17:21:46.422Z,8.00
2023-02-09T17:24:40.461Z,7.88
2023-02-09T17:27:10.117Z,8.75
2023-02-09T17:29:38.455Z,8.10
2023-02-09T17:32:06.722Z,8.80
2023-02-09T17:34:34.606Z,10.07
2023-02-09T17:37:07.390Z,7.93
2023-02-09T17:39:34.376Z,8.63
2023-02-09T17:42:02.723Z,7.95
2023-02-09T17:44:45.524Z,8.52
2023-02-09T17:50:12.589Z,9.05
2023-02-09T17:52:40.429Z,8.45
2023-02-09T17:55:18.405Z,8.82
2023-02-09T17:58:13.472Z,8.27
2023-02-09T18:00:41.812Z,8.85
2023-02-09T18:03:15.289Z,8.95
2023-02-09T18:08:34.375Z,8.85
2023-02-09T18:11:02.411Z,9.48
2023-02-09T18:13:30.548Z,8.60
2023-02-09T18:15:58.485Z,10.05
2023-02-09T18:18:26.658Z,9.68
2023-02-09T18:20:54.428Z,9.23
2023-02-09T18:23:46.477Z,8.20
2023-02-09T18:26:39.020Z,8.68
2023-02-09T18:29:07.414Z,9.35
2023-02-09T18:31:35.282Z,9.57
2023-02-09T18:34:08.052Z,9.75
2023-02-09T18:37:00.555Z,9.45
2023-02-09T18:39:30.585Z,8.88
2023-02-09T18:42:02.436Z,10.13
2023-02-09T18:44:33.213Z,8.23
2023-02-09T18:47:27.094Z,9.82
2023-02-09T18:49:58.663Z,8.90
2023-02-09T18:52:27.399Z,9.40
2023-02-09T18:54:54.541Z,10.38
2023-02-09T18:57:48.534Z,9.25
2023-02-09T19:00:18.621Z,10.48
2023-02-09T19:02:47.759Z,9.88
2023-02-09T19:05:16.242Z,9.80
2023-02-09T19:08:12.815Z,11.13
2023-02-09T19:10:42.863Z,11.40
2023-02-09T19:13:12.050Z,10.70
2023-02-09T19:15:46.088Z,9.57
2023-02-09T19:18:14.534Z,11.05
2023-02-09T19:20:42.542Z,10.48
2023-02-09T19:23:10.549Z,11.98
2023-02-09T19:25:38.518Z,10.07
2023-02-09T19:28:11.538Z,8.82
2023-02-09T19:30:40.394Z,11.02
2023-02-09T19:33:08.398Z,10.70
2023-02-09T19:35:36.732Z,10.60
2023-02-09T19:38:08.416Z,10.52
2023-02-09T19:40:40.654Z,10.93
2023-02-09T19:43:08.407Z,11.20
2023-02-09T19:45:37.329Z,11.27
2023-02-09T19:48:06.534Z,10.45
2023-02-09T19:50:43.659Z,9.60
2023-02-09T19:53:15.398Z,11.48
2023-02-09T19:58:45.402Z,11.73
2023-02-09T20:04:09.942Z,10.23
2023-02-09T20:09:35.437Z,10.80
2023-02-09T20:12:02.893Z,11.38
2023-02-09T20:14:31.780Z,11.30
2023-02-09T20:17:00.518Z,10.93
2023-02-09T20:19:54.630Z,12.15
2023-02-09T20:22:22.700Z,11.98
2023-02-09T20:24:50.458Z,12.38
2023-02-09T20:27:19.159Z,11.20
2023-02-09T20:29:52.296Z,10.90
2023-02-09T20:32:20.519Z,12.10
2023-02-09T20:34:48.398Z,11.48
2023-02-09T20:37:41.318Z,12.95
2023-02-09T20:40:11.300Z,10.73
2023-02-09T20:43:02.978Z,11.52
2023-02-09T20:45:49.360Z,11.40
2023-02-09T20:48:17.332Z,11.25
2023-02-09T20:51:11.118Z,11.98
2023-02-09T20:53:39.183Z,12.48
2023-02-09T20:56:07.248Z,10.60
2023-02-09T20:58:34.600Z,12.93
2023-02-09T21:01:02.498Z,12.13
2023-02-09T21:03:37.267Z,12.73
2023-02-09T21:08:34.883Z,11.38
2023-02-09T21:11:07.643Z,12.25
2023-02-09T21:13:36.624Z,12.55
2023-02-09T21:16:04.540Z,14.10
2023-02-09T21:18:37.631Z,13.27
2023-02-09T21:21:13.758Z,11.80
2023-02-09T21:23:41.514Z,11.93
2023-02-09T21:26:17.860Z,13.57
2023-02-09T21:29:10.736Z,12.18
2023-02-09T21:31:38.800Z,11.65
2023-02-09T21:34:32.828Z,13.43
2023-02-09T21:37:00.750Z,11.85
2023-02-09T21:39:28.581Z,12.27
2023-02-09T21:42:15.087Z,13.35
2023-02-09T21:44:42.373Z,12.10
2023-02-09T21:47:10.584Z,13.32
2023-02-09T21:49:43.519Z,12.88
2023-02-09T21:52:10.628Z,13.82
2023-02-09T21:54:43.466Z,12.88
2023-02-09T21:57:15.513Z,13.18
2023-02-09T21:59:48.560Z,12.52
2023-02-09T22:02:18.267Z,12.27
2023-02-09T22:04:47.076Z,12.80
2023-02-09T22:07:14.773Z,12.50
2023-02-09T22:09:42.870Z,13.13
2023-02-09T22:12:10.536Z,13.48
2023-02-09T22:14:41.544Z,13.02
2023-02-09T22:17:08.684Z,12.60
2023-02-09T22:19:37.137Z,13.38
2023-02-09T22:22:30.412Z,14.80
2023-02-09T22:24:59.060Z,13.20
2023-02-09T22:27:26.598Z,14.65
2023-02-09T22:29:59.413Z,13.68
2023-02-09T22:32:26.450Z,13.35
2023-02-09T22:34:54.411Z,13.48
2023-02-09T22:37:26.463Z,14.20
2023-02-09T22:39:59.447Z,13.38
2023-02-09T22:42:31.431Z,13.00
2023-02-09T22:44:58.376Z,14.32
2023-02-09T22:47:26.542Z,14.70
2023-02-09T22:49:54.430Z,13.88
2023-02-09T22:52:22.622Z,14.77
2023-02-09T22:54:50.461Z,13.57
2023-02-09T22:57:18.580Z,13.95
2023-02-09T22:59:46.460Z,14.48
2023-02-09T23:02:14.468Z,13.55
2023-02-09T23:04:42.472Z,13.63
2023-02-09T23:07:14.390Z,13.68
2023-02-09T23:09:42.715Z,14.23
2023-02-09T23:15:02.402Z,13.48
2023-02-09T23:17:34.469Z,12.90
2023-02-09T23:20:02.430Z,13.50
2023-02-09T23:25:51.765Z,12.60
2023-02-09T23:28:18.424Z,13.50
2023-02-09T23:30:46.846Z,12.43
2023-02-09T23:33:25.444Z,12.50
2023-02-09T23:35:52.367Z,13.77
2023-02-09T23:38:25.460Z,13.73
2023-02-09T23:40:52.524Z,12.95
2023-02-09T23:43:20.656Z,12.27
2023-02-09T23:45:48.402Z,13.25
2023-02-09T23:48:40.628Z,12.18
2023-02-09T23:51:35.617Z,12.82
2023-02-09T23:54:04.691Z,13.25
2023-02-09T23:56:36.898Z,13.80
2023-02-09T23:59:30.417Z,14.05
